This is the latest recevied weather packets stored in our database for station/object TG9ADI-20. If no packets are shown the sender has not sent any weather packets the latest 10 day(s).
| Time | Temp. | Humidity | Pressure | Rain* | Wind** | Luminosity | Snow |
|---|---|---|---|---|---|---|---|
| 1777874287 | 16.11° C | 10% | - | 0 mm | - | - | - |
| 1777873686 | 15.56° C | 92% | 1017 hPa | 0 mm | - | - | - |
| 1777873086 | 16.11° C | 91% | 1017 hPa | 0 mm | - | - | - |
| 1777872485 | 16.11° C | 89% | 1017 hPa | 0 mm | - | - | - |
| 1777871884 | 17.78° C | 84% | 1018 hPa | 0 mm | - | - | - |
| 1777871284 | 18.33° C | 81% | 1018 hPa | 0 mm | - | - | - |
| 1777870683 | 19.44° C | 77% | 1018 hPa | 0 mm | - | - | - |
| 1777870082 | 19.44° C | 77% | 1018 hPa | 0 mm | - | - | - |
| 1777869482 | 15.56° C | 10% | - | 0 mm | - | - | - |
| 1777868881 | 15.56° C | 91% | 1019 hPa | 0 mm | - | - | - |
| 1777868281 | 18.89° C | 79% | 1019 hPa | 0 mm | - | - | - |
| 1777867680 | 19.44° C | 81% | 1017 hPa | 0 mm | - | - | - |
| 1777867079 | 15.56° C | 10% | - | 0 mm | - | - | - |
| 1777866479 | 16.11° C | 10% | - | 0 mm | - | - | - |
| 1777865878 | 16.11° C | 10% | - | 0 mm | - | - | - |
| 1777865278 | 16.11° C | 10% | - | 0 mm | - | - | - |
| 1777864677 | 16.11° C | 92% | 1016 hPa | 0 mm | - | - | - |
| 1777864076 | 16.67° C | 91% | 1016 hPa | 0 mm | - | - | - |
| 1777863476 | 17.78° C | 87% | 1016 hPa | 0 mm | - | - | - |
| 1777862875 | 16.11° C | 92% | 1016 hPa | 0.76 mm | - | - | - |
| 1777862274 | 16.11° C | 91% | 1016 hPa | 1.78 mm | - | - | - |
| 1777861674 | 18.33° C | 85% | 1015 hPa | 0 mm | - | - | - |
| 1777861073 | 15.56° C | 10% | - | 0 mm | - | - | - |
| 1777860473 | 17.22° C | 90% | 1015 hPa | 0 mm | - | - | - |
| 1777859872 | 19.44° C | 68% | 1016 hPa | 0 mm | - | - | - |
* Rain latest hour (hover to see other rain measurements)
** Current wind speed in m/s (hover to see current wind gust speed)